sensor_id;sensor_type;location;lat;lon;timestamp;P1;durP1;ratioP1;P2;durP2;ratioP2
7795;SDS011;3942;51.518;6.912;2022-09-27T00:04:48;14.15;;;4.82;;
7795;SDS011;3942;51.518;6.912;2022-09-27T00:09:50;8.93;;;4.28;;
7795;SDS011;3942;51.518;6.912;2022-09-27T00:14:52;9.00;;;2.85;;
7795;SDS011;3942;51.518;6.912;2022-09-27T00:19:57;6.38;;;2.53;;
7795;SDS011;3942;51.518;6.912;2022-09-27T00:24:59;6.43;;;2.05;;
7795;SDS011;3942;51.518;6.912;2022-09-27T00:30:06;14.07;;;2.50;;
7795;SDS011;3942;51.518;6.912;2022-09-27T00:35:10;8.77;;;2.38;;
7795;SDS011;3942;51.518;6.912;2022-09-27T00:40:12;7.90;;;2.70;;
7795;SDS011;3942;51.518;6.912;2022-09-27T00:45:15;8.80;;;3.03;;
7795;SDS011;3942;51.518;6.912;2022-09-27T00:50:24;12.05;;;2.83;;
7795;SDS011;3942;51.518;6.912;2022-09-27T00:55:31;8.60;;;3.72;;
7795;SDS011;3942;51.518;6.912;2022-09-27T01:00:36;11.70;;;4.30;;
7795;SDS011;3942;51.518;6.912;2022-09-27T01:05:43;11.23;;;5.15;;
7795;SDS011;3942;51.518;6.912;2022-09-27T01:10:47;10.48;;;6.13;;
7795;SDS011;3942;51.518;6.912;2022-09-27T01:15:59;19.23;;;5.80;;
7795;SDS011;3942;51.518;6.912;2022-09-27T01:21:20;14.27;;;6.43;;
7795;SDS011;3942;51.518;6.912;2022-09-27T01:26:46;11.90;;;5.95;;
7795;SDS011;3942;51.518;6.912;2022-09-27T01:32:10;24.02;;;8.15;;
7795;SDS011;3942;51.518;6.912;2022-09-27T01:37:21;16.17;;;6.00;;
7795;SDS011;3942;51.518;6.912;2022-09-27T01:42:33;12.10;;;6.57;;
7795;SDS011;3942;51.518;6.912;2022-09-27T01:47:43;12.77;;;6.00;;
7795;SDS011;3942;51.518;6.912;2022-09-27T01:52:49;11.10;;;5.25;;
7795;SDS011;3942;51.518;6.912;2022-09-27T01:57:56;10.88;;;4.68;;
7795;SDS011;3942;51.518;6.912;2022-09-27T02:03:03;10.75;;;4.28;;
7795;SDS011;3942;51.518;6.912;2022-09-27T02:08:11;12.48;;;5.00;;
7795;SDS011;3942;51.518;6.912;2022-09-27T02:13:19;13.20;;;4.68;;
7795;SDS011;3942;51.518;6.912;2022-09-27T02:18:26;7.20;;;3.97;;
7795;SDS011;3942;51.518;6.912;2022-09-27T02:23:34;9.43;;;4.43;;
7795;SDS011;3942;51.518;6.912;2022-09-27T02:28:38;12.57;;;4.22;;
7795;SDS011;3942;51.518;6.912;2022-09-27T02:33:46;10.18;;;4.32;;
7795;SDS011;3942;51.518;6.912;2022-09-27T02:38:50;10.45;;;4.10;;
7795;SDS011;3942;51.518;6.912;2022-09-27T02:43:53;8.52;;;4.07;;
7795;SDS011;3942;51.518;6.912;2022-09-27T02:49:00;8.88;;;3.88;;
7795;SDS011;3942;51.518;6.912;2022-09-27T02:54:17;12.23;;;4.47;;
7795;SDS011;3942;51.518;6.912;2022-09-27T02:59:26;9.60;;;3.42;;
7795;SDS011;3942;51.518;6.912;2022-09-27T03:09:40;9.93;;;3.85;;
7795;SDS011;3942;51.518;6.912;2022-09-27T03:14:44;9.80;;;3.67;;
7795;SDS011;3942;51.518;6.912;2022-09-27T03:19:48;6.75;;;3.13;;
7795;SDS011;3942;51.518;6.912;2022-09-27T03:24:50;7.90;;;3.35;;
7795;SDS011;3942;51.518;6.912;2022-09-27T03:29:52;13.00;;;4.40;;
7795;SDS011;3942;51.518;6.912;2022-09-27T03:34:55;11.70;;;4.20;;
7795;SDS011;3942;51.518;6.912;2022-09-27T03:39:57;13.52;;;7.95;;
7795;SDS011;3942;51.518;6.912;2022-09-27T03:44:59;21.60;;;12.57;;
7795;SDS011;3942;51.518;6.912;2022-09-27T03:50:03;22.85;;;11.70;;
7795;SDS011;3942;51.518;6.912;2022-09-27T03:55:06;17.23;;;8.75;;
7795;SDS011;3942;51.518;6.912;2022-09-27T04:00:08;12.68;;;5.15;;
7795;SDS011;3942;51.518;6.912;2022-09-27T04:05:13;13.40;;;5.20;;
7795;SDS011;3942;51.518;6.912;2022-09-27T04:10:15;8.88;;;4.68;;
7795;SDS011;3942;51.518;6.912;2022-09-27T04:15:17;16.60;;;4.20;;
7795;SDS011;3942;51.518;6.912;2022-09-27T04:20:21;18.35;;;4.88;;
7795;SDS011;3942;51.518;6.912;2022-09-27T04:25:23;14.73;;;5.78;;
7795;SDS011;3942;51.518;6.912;2022-09-27T04:30:25;16.15;;;6.55;;
7795;SDS011;3942;51.518;6.912;2022-09-27T04:35:28;11.68;;;5.15;;
7795;SDS011;3942;51.518;6.912;2022-09-27T04:40:48;19.35;;;9.93;;
7795;SDS011;3942;51.518;6.912;2022-09-27T04:45:50;11.43;;;5.05;;
7795;SDS011;3942;51.518;6.912;2022-09-27T04:50:57;11.85;;;5.45;;
7795;SDS011;3942;51.518;6.912;2022-09-27T04:56:01;21.15;;;7.95;;
7795;SDS011;3942;51.518;6.912;2022-09-27T05:01:05;11.75;;;4.35;;
7795;SDS011;3942;51.518;6.912;2022-09-27T05:06:09;13.18;;;3.85;;
7795;SDS011;3942;51.518;6.912;2022-09-27T05:11:11;10.82;;;3.65;;
7795;SDS011;3942;51.518;6.912;2022-09-27T05:16:13;10.40;;;3.92;;
7795;SDS011;3942;51.518;6.912;2022-09-27T05:21:17;6.50;;;2.85;;
7795;SDS011;3942;51.518;6.912;2022-09-27T05:26:19;9.23;;;2.80;;
7795;SDS011;3942;51.518;6.912;2022-09-27T05:31:22;7.72;;;2.13;;
7795;SDS011;3942;51.518;6.912;2022-09-27T05:36:25;11.70;;;2.95;;
7795;SDS011;3942;51.518;6.912;2022-09-27T05:41:27;8.60;;;3.30;;
7795;SDS011;3942;51.518;6.912;2022-09-27T05:46:31;12.30;;;3.85;;
7795;SDS011;3942;51.518;6.912;2022-09-27T05:51:35;8.18;;;2.97;;
7795;SDS011;3942;51.518;6.912;2022-09-27T05:56:37;11.40;;;3.72;;
7795;SDS011;3942;51.518;6.912;2022-09-27T06:01:39;12.00;;;2.90;;
7795;SDS011;3942;51.518;6.912;2022-09-27T06:06:42;13.77;;;3.38;;
7795;SDS011;3942;51.518;6.912;2022-09-27T06:11:44;9.30;;;2.83;;
7795;SDS011;3942;51.518;6.912;2022-09-27T06:16:46;8.60;;;2.70;;
7795;SDS011;3942;51.518;6.912;2022-09-27T06:21:49;8.98;;;3.15;;
7795;SDS011;3942;51.518;6.912;2022-09-27T06:26:51;5.07;;;2.08;;
7795;SDS011;3942;51.518;6.912;2022-09-27T06:31:54;7.35;;;2.20;;
7795;SDS011;3942;51.518;6.912;2022-09-27T06:36:58;5.93;;;2.60;;
7795;SDS011;3942;51.518;6.912;2022-09-27T06:42:00;6.72;;;2.10;;
7795;SDS011;3942;51.518;6.912;2022-09-27T06:47:02;5.85;;;2.97;;
7795;SDS011;3942;51.518;6.912;2022-09-27T06:52:05;6.05;;;2.30;;
7795;SDS011;3942;51.518;6.912;2022-09-27T06:57:07;8.50;;;2.30;;
7795;SDS011;3942;51.518;6.912;2022-09-27T07:02:09;15.55;;;4.72;;
7795;SDS011;3942;51.518;6.912;2022-09-27T07:07:14;24.10;;;8.73;;
7795;SDS011;3942;51.518;6.912;2022-09-27T07:12:16;11.80;;;5.22;;
7795;SDS011;3942;51.518;6.912;2022-09-27T07:17:23;7.95;;;3.80;;
7795;SDS011;3942;51.518;6.912;2022-09-27T07:22:28;11.55;;;3.83;;
7795;SDS011;3942;51.518;6.912;2022-09-27T07:27:30;8.05;;;2.50;;
7795;SDS011;3942;51.518;6.912;2022-09-27T07:32:34;8.25;;;2.10;;
7795;SDS011;3942;51.518;6.912;2022-09-27T07:37:38;7.47;;;2.33;;
7795;SDS011;3942;51.518;6.912;2022-09-27T07:42:40;6.60;;;1.90;;
7795;SDS011;3942;51.518;6.912;2022-09-27T07:47:41;7.45;;;2.30;;
7795;SDS011;3942;51.518;6.912;2022-09-27T07:52:45;5.20;;;1.50;;
7795;SDS011;3942;51.518;6.912;2022-09-27T07:57:49;3.42;;;1.27;;
7795;SDS011;3942;51.518;6.912;2022-09-27T08:02:51;5.85;;;1.77;;
7795;SDS011;3942;51.518;6.912;2022-09-27T08:07:54;5.47;;;1.88;;
7795;SDS011;3942;51.518;6.912;2022-09-27T08:12:56;6.07;;;2.33;;
7795;SDS011;3942;51.518;6.912;2022-09-27T08:17:59;5.07;;;2.40;;
7795;SDS011;3942;51.518;6.912;2022-09-27T08:23:02;5.97;;;2.17;;
7795;SDS011;3942;51.518;6.912;2022-09-27T08:28:04;3.20;;;1.40;;
7795;SDS011;3942;51.518;6.912;2022-09-27T08:33:07;4.28;;;1.85;;
7795;SDS011;3942;51.518;6.912;2022-09-27T08:38:11;3.10;;;1.42;;
7795;SDS011;3942;51.518;6.912;2022-09-27T08:43:14;2.60;;;1.00;;
7795;SDS011;3942;51.518;6.912;2022-09-27T08:48:25;3.05;;;1.15;;
7795;SDS011;3942;51.518;6.912;2022-09-27T08:53:31;3.95;;;1.85;;
7795;SDS011;3942;51.518;6.912;2022-09-27T08:58:39;2.72;;;1.35;;
7795;SDS011;3942;51.518;6.912;2022-09-27T09:03:46;3.90;;;1.60;;
7795;SDS011;3942;51.518;6.912;2022-09-27T09:08:54;4.18;;;1.30;;
7795;SDS011;3942;51.518;6.912;2022-09-27T09:14:07;4.07;;;1.50;;
7795;SDS011;3942;51.518;6.912;2022-09-27T09:19:26;2.38;;;1.20;;
7795;SDS011;3942;51.518;6.912;2022-09-27T09:24:48;8.23;;;3.50;;
7795;SDS011;3942;51.518;6.912;2022-09-27T09:30:10;6.13;;;1.75;;
7795;SDS011;3942;51.518;6.912;2022-09-27T09:35:22;3.20;;;1.70;;
7795;SDS011;3942;51.518;6.912;2022-09-27T09:40:28;2.33;;;1.27;;
7795;SDS011;3942;51.518;6.912;2022-09-27T09:45:37;2.42;;;1.45;;
7795;SDS011;3942;51.518;6.912;2022-09-27T09:50:44;3.47;;;1.90;;
7795;SDS011;3942;51.518;6.912;2022-09-27T09:55:51;8.25;;;2.70;;
7795;SDS011;3942;51.518;6.912;2022-09-27T10:00:58;3.45;;;1.80;;
7795;SDS011;3942;51.518;6.912;2022-09-27T10:06:11;2.67;;;1.80;;
7795;SDS011;3942;51.518;6.912;2022-09-27T10:11:18;6.80;;;2.35;;
7795;SDS011;3942;51.518;6.912;2022-09-27T10:16:23;5.03;;;2.30;;
7795;SDS011;3942;51.518;6.912;2022-09-27T10:21:28;4.90;;;2.13;;
7795;SDS011;3942;51.518;6.912;2022-09-27T10:26:32;6.18;;;2.80;;
7795;SDS011;3942;51.518;6.912;2022-09-27T10:31:34;72.00;;;44.17;;
7795;SDS011;3942;51.518;6.912;2022-09-27T10:36:37;30.60;;;18.75;;
7795;SDS011;3942;51.518;6.912;2022-09-27T10:41:41;12.52;;;9.15;;
7795;SDS011;3942;51.518;6.912;2022-09-27T10:46:43;10.20;;;5.65;;
7795;SDS011;3942;51.518;6.912;2022-09-27T10:51:48;29.63;;;16.88;;
7795;SDS011;3942;51.518;6.912;2022-09-27T10:56:55;63.72;;;29.52;;
7795;SDS011;3942;51.518;6.912;2022-09-27T11:01:59;141.75;;;71.00;;
7795;SDS011;3942;51.518;6.912;2022-09-27T11:07:10;100.82;;;50.80;;
7795;SDS011;3942;51.518;6.912;2022-09-27T11:12:16;34.08;;;13.95;;
7795;SDS011;3942;51.518;6.912;2022-09-27T11:17:21;119.25;;;63.00;;
7795;SDS011;3942;51.518;6.912;2022-09-27T11:22:33;51.63;;;24.25;;
7795;SDS011;3942;51.518;6.912;2022-09-27T11:27:44;40.60;;;18.02;;
7795;SDS011;3942;51.518;6.912;2022-09-27T11:33:00;10.85;;;5.63;;
7795;SDS011;3942;51.518;6.912;2022-09-27T11:38:23;91.20;;;48.88;;
7795;SDS011;3942;51.518;6.912;2022-09-27T11:48:55;117.50;;;58.53;;
7795;SDS011;3942;51.518;6.912;2022-09-27T11:54:17;64.28;;;28.40;;
7795;SDS011;3942;51.518;6.912;2022-09-27T12:05:00;28.15;;;14.40;;
7795;SDS011;3942;51.518;6.912;2022-09-27T12:10:08;32.67;;;16.88;;
7795;SDS011;3942;51.518;6.912;2022-09-27T12:15:14;161.13;;;77.80;;
7795;SDS011;3942;51.518;6.912;2022-09-27T12:20:19;105.32;;;47.63;;
7795;SDS011;3942;51.518;6.912;2022-09-27T12:25:25;58.17;;;26.80;;
7795;SDS011;3942;51.518;6.912;2022-09-27T12:30:30;44.15;;;24.13;;
7795;SDS011;3942;51.518;6.912;2022-09-27T12:35:39;37.03;;;17.75;;
7795;SDS011;3942;51.518;6.912;2022-09-27T12:40:45;48.97;;;19.55;;
7795;SDS011;3942;51.518;6.912;2022-09-27T12:45:53;46.08;;;20.83;;
7795;SDS011;3942;51.518;6.912;2022-09-27T12:51:06;30.45;;;14.18;;
7795;SDS011;3942;51.518;6.912;2022-09-27T12:56:19;82.65;;;38.30;;
7795;SDS011;3942;51.518;6.912;2022-09-27T13:01:32;51.95;;;26.00;;
7795;SDS011;3942;51.518;6.912;2022-09-27T13:06:46;68.85;;;37.40;;
7795;SDS011;3942;51.518;6.912;2022-09-27T13:11:51;93.35;;;45.40;;
7795;SDS011;3942;51.518;6.912;2022-09-27T13:17:01;85.68;;;44.55;;
7795;SDS011;3942;51.518;6.912;2022-09-27T13:22:05;107.88;;;46.65;;
7795;SDS011;3942;51.518;6.912;2022-09-27T13:32:40;27.35;;;11.77;;
7795;SDS011;3942;51.518;6.912;2022-09-27T13:38:04;7.05;;;2.50;;
7795;SDS011;3942;51.518;6.912;2022-09-27T13:43:35;4.95;;;1.95;;
7795;SDS011;3942;51.518;6.912;2022-09-27T13:48:42;3.17;;;1.40;;
7795;SDS011;3942;51.518;6.912;2022-09-27T13:53:56;2.90;;;1.60;;
7795;SDS011;3942;51.518;6.912;2022-09-27T13:59:00;2.33;;;1.38;;
7795;SDS011;3942;51.518;6.912;2022-09-27T14:04:03;4.90;;;2.13;;
7795;SDS011;3942;51.518;6.912;2022-09-27T14:09:16;10.13;;;6.00;;
7795;SDS011;3942;51.518;6.912;2022-09-27T14:14:21;5.47;;;3.08;;
7795;SDS011;3942;51.518;6.912;2022-09-27T14:19:26;3.70;;;1.58;;
7795;SDS011;3942;51.518;6.912;2022-09-27T14:24:31;5.40;;;3.30;;
7795;SDS011;3942;51.518;6.912;2022-09-27T14:29:38;2.95;;;1.25;;
7795;SDS011;3942;51.518;6.912;2022-09-27T14:34:41;1.95;;;0.90;;
7795;SDS011;3942;51.518;6.912;2022-09-27T14:39:44;3.50;;;1.10;;
7795;SDS011;3942;51.518;6.912;2022-09-27T14:44:54;2.40;;;0.93;;
7795;SDS011;3942;51.518;6.912;2022-09-27T14:50:11;2.58;;;0.90;;
7795;SDS011;3942;51.518;6.912;2022-09-27T14:55:20;5.60;;;2.22;;
7795;SDS011;3942;51.518;6.912;2022-09-27T15:00:23;7.72;;;3.15;;
7795;SDS011;3942;51.518;6.912;2022-09-27T15:05:28;6.57;;;2.30;;
7795;SDS011;3942;51.518;6.912;2022-09-27T15:10:33;3.22;;;1.58;;
7795;SDS011;3942;51.518;6.912;2022-09-27T15:15:36;3.03;;;1.40;;
7795;SDS011;3942;51.518;6.912;2022-09-27T15:20:39;4.10;;;1.40;;
7795;SDS011;3942;51.518;6.912;2022-09-27T15:25:59;4.45;;;1.73;;
7795;SDS011;3942;51.518;6.912;2022-09-27T15:31:03;4.72;;;1.85;;
7795;SDS011;3942;51.518;6.912;2022-09-27T15:36:07;6.00;;;1.90;;
7795;SDS011;3942;51.518;6.912;2022-09-27T15:41:13;4.18;;;1.60;;
7795;SDS011;3942;51.518;6.912;2022-09-27T15:46:25;7.28;;;3.28;;
7795;SDS011;3942;51.518;6.912;2022-09-27T15:51:38;4.50;;;1.98;;
7795;SDS011;3942;51.518;6.912;2022-09-27T15:56:42;11.60;;;2.83;;
7795;SDS011;3942;51.518;6.912;2022-09-27T16:01:44;6.15;;;2.08;;
7795;SDS011;3942;51.518;6.912;2022-09-27T16:06:46;6.72;;;2.10;;
7795;SDS011;3942;51.518;6.912;2022-09-27T16:11:50;9.48;;;3.53;;
7795;SDS011;3942;51.518;6.912;2022-09-27T16:16:52;5.53;;;1.98;;
7795;SDS011;3942;51.518;6.912;2022-09-27T16:21:57;23.27;;;7.40;;
7795;SDS011;3942;51.518;6.912;2022-09-27T16:27:03;7.13;;;2.35;;
7795;SDS011;3942;51.518;6.912;2022-09-27T16:32:06;4.95;;;2.17;;
7795;SDS011;3942;51.518;6.912;2022-09-27T16:37:08;2.65;;;1.65;;
7795;SDS011;3942;51.518;6.912;2022-09-27T16:42:12;12.25;;;5.60;;
7795;SDS011;3942;51.518;6.912;2022-09-27T16:47:14;3.10;;;1.40;;
7795;SDS011;3942;51.518;6.912;2022-09-27T16:52:16;6.53;;;1.85;;
7795;SDS011;3942;51.518;6.912;2022-09-27T16:57:19;3.97;;;2.00;;
7795;SDS011;3942;51.518;6.912;2022-09-27T17:02:21;4.57;;;2.28;;
7795;SDS011;3942;51.518;6.912;2022-09-27T17:07:23;15.07;;;8.20;;
7795;SDS011;3942;51.518;6.912;2022-09-27T17:12:27;5.10;;;2.78;;
7795;SDS011;3942;51.518;6.912;2022-09-27T17:17:28;11.65;;;5.68;;
7795;SDS011;3942;51.518;6.912;2022-09-27T17:22:30;6.80;;;3.53;;
7795;SDS011;3942;51.518;6.912;2022-09-27T17:27:33;5.22;;;2.67;;
7795;SDS011;3942;51.518;6.912;2022-09-27T17:32:35;5.93;;;2.97;;
7795;SDS011;3942;51.518;6.912;2022-09-27T17:37:37;8.38;;;3.83;;
7795;SDS011;3942;51.518;6.912;2022-09-27T17:42:40;6.22;;;2.40;;
7795;SDS011;3942;51.518;6.912;2022-09-27T17:47:42;10.55;;;3.78;;
7795;SDS011;3942;51.518;6.912;2022-09-27T17:53:01;7.18;;;3.35;;
7795;SDS011;3942;51.518;6.912;2022-09-27T17:58:04;33.40;;;17.45;;
7795;SDS011;3942;51.518;6.912;2022-09-27T18:03:06;6.88;;;2.83;;
7795;SDS011;3942;51.518;6.912;2022-09-27T18:08:08;9.23;;;3.05;;
7795;SDS011;3942;51.518;6.912;2022-09-27T18:13:11;7.00;;;3.17;;
7795;SDS011;3942;51.518;6.912;2022-09-27T18:18:13;12.25;;;3.72;;
7795;SDS011;3942;51.518;6.912;2022-09-27T18:23:16;10.18;;;3.65;;
7795;SDS011;3942;51.518;6.912;2022-09-27T18:28:19;5.68;;;3.00;;
7795;SDS011;3942;51.518;6.912;2022-09-27T18:33:26;6.60;;;3.55;;
7795;SDS011;3942;51.518;6.912;2022-09-27T18:38:28;10.60;;;4.70;;
7795;SDS011;3942;51.518;6.912;2022-09-27T18:43:32;9.68;;;4.53;;
7795;SDS011;3942;51.518;6.912;2022-09-27T18:48:35;7.75;;;3.85;;
7795;SDS011;3942;51.518;6.912;2022-09-27T18:53:37;12.40;;;5.50;;
7795;SDS011;3942;51.518;6.912;2022-09-27T18:58:41;6.30;;;3.80;;
7795;SDS011;3942;51.518;6.912;2022-09-27T19:03:44;5.95;;;3.15;;
7795;SDS011;3942;51.518;6.912;2022-09-27T19:08:46;11.18;;;5.53;;
7795;SDS011;3942;51.518;6.912;2022-09-27T19:13:54;6.75;;;4.00;;
7795;SDS011;3942;51.518;6.912;2022-09-27T19:18:57;9.45;;;3.83;;
7795;SDS011;3942;51.518;6.912;2022-09-27T19:23:59;7.63;;;3.30;;
7795;SDS011;3942;51.518;6.912;2022-09-27T19:29:03;48.40;;;25.98;;
7795;SDS011;3942;51.518;6.912;2022-09-27T19:34:05;11.18;;;5.30;;
7795;SDS011;3942;51.518;6.912;2022-09-27T19:39:10;5.75;;;3.83;;
7795;SDS011;3942;51.518;6.912;2022-09-27T19:44:13;6.78;;;3.42;;
7795;SDS011;3942;51.518;6.912;2022-09-27T19:49:15;8.30;;;3.70;;
7795;SDS011;3942;51.518;6.912;2022-09-27T19:54:17;8.25;;;4.40;;
7795;SDS011;3942;51.518;6.912;2022-09-27T19:59:21;15.00;;;6.90;;
7795;SDS011;3942;51.518;6.912;2022-09-27T20:04:23;10.25;;;5.43;;
7795;SDS011;3942;51.518;6.912;2022-09-27T20:09:25;10.57;;;4.63;;
7795;SDS011;3942;51.518;6.912;2022-09-27T20:14:29;10.95;;;5.80;;
7795;SDS011;3942;51.518;6.912;2022-09-27T20:19:31;12.23;;;5.50;;
7795;SDS011;3942;51.518;6.912;2022-09-27T20:24:33;11.57;;;5.43;;
7795;SDS011;3942;51.518;6.912;2022-09-27T20:29:36;12.52;;;6.20;;
7795;SDS011;3942;51.518;6.912;2022-09-27T20:34:38;12.52;;;5.80;;
7795;SDS011;3942;51.518;6.912;2022-09-27T20:39:40;10.38;;;4.68;;
7795;SDS011;3942;51.518;6.912;2022-09-27T20:44:44;7.57;;;4.30;;
7795;SDS011;3942;51.518;6.912;2022-09-27T20:49:46;11.52;;;4.88;;
7795;SDS011;3942;51.518;6.912;2022-09-27T20:54:47;12.27;;;7.40;;
7795;SDS011;3942;51.518;6.912;2022-09-27T20:59:51;9.00;;;4.28;;
7795;SDS011;3942;51.518;6.912;2022-09-27T21:04:53;8.85;;;4.47;;
7795;SDS011;3942;51.518;6.912;2022-09-27T21:09:56;10.05;;;5.15;;
7795;SDS011;3942;51.518;6.912;2022-09-27T21:14:59;7.55;;;4.63;;
7795;SDS011;3942;51.518;6.912;2022-09-27T21:20:01;7.43;;;5.25;;
7795;SDS011;3942;51.518;6.912;2022-09-27T21:25:04;9.27;;;6.18;;
7795;SDS011;3942;51.518;6.912;2022-09-27T21:30:08;14.30;;;8.75;;
7795;SDS011;3942;51.518;6.912;2022-09-27T21:35:11;15.20;;;9.77;;
7795;SDS011;3942;51.518;6.912;2022-09-27T21:40:13;17.50;;;10.80;;
7795;SDS011;3942;51.518;6.912;2022-09-27T21:45:17;8.95;;;5.45;;
7795;SDS011;3942;51.518;6.912;2022-09-27T21:50:19;8.30;;;4.78;;
7795;SDS011;3942;51.518;6.912;2022-09-27T21:55:21;10.43;;;5.50;;
7795;SDS011;3942;51.518;6.912;2022-09-27T22:00:24;7.95;;;5.38;;
7795;SDS011;3942;51.518;6.912;2022-09-27T22:05:26;10.60;;;5.32;;
7795;SDS011;3942;51.518;6.912;2022-09-27T22:10:28;9.20;;;5.30;;
7795;SDS011;3942;51.518;6.912;2022-09-27T22:15:32;9.60;;;6.07;;
7795;SDS011;3942;51.518;6.912;2022-09-27T22:20:35;10.43;;;7.15;;
7795;SDS011;3942;51.518;6.912;2022-09-27T22:25:37;19.05;;;11.57;;
7795;SDS011;3942;51.518;6.912;2022-09-27T22:30:40;16.48;;;10.73;;
7795;SDS011;3942;51.518;6.912;2022-09-27T22:35:44;17.38;;;9.93;;
7795;SDS011;3942;51.518;6.912;2022-09-27T22:40:52;13.82;;;9.38;;
7795;SDS011;3942;51.518;6.912;2022-09-27T22:45:56;12.77;;;8.85;;
7795;SDS011;3942;51.518;6.912;2022-09-27T22:51:00;15.95;;;9.07;;
7795;SDS011;3942;51.518;6.912;2022-09-27T22:56:03;17.25;;;9.00;;
7795;SDS011;3942;51.518;6.912;2022-09-27T23:01:07;22.45;;;9.85;;
7795;SDS011;3942;51.518;6.912;2022-09-27T23:06:10;15.00;;;7.68;;
7795;SDS011;3942;51.518;6.912;2022-09-27T23:11:14;11.85;;;8.15;;
7795;SDS011;3942;51.518;6.912;2022-09-27T23:16:19;13.88;;;9.32;;
7795;SDS011;3942;51.518;6.912;2022-09-27T23:21:23;13.73;;;9.18;;
7795;SDS011;3942;51.518;6.912;2022-09-27T23:26:26;14.80;;;9.25;;
7795;SDS011;3942;51.518;6.912;2022-09-27T23:31:30;17.90;;;9.93;;
7795;SDS011;3942;51.518;6.912;2022-09-27T23:36:33;13.75;;;8.77;;
7795;SDS011;3942;51.518;6.912;2022-09-27T23:41:34;17.65;;;8.07;;
7795;SDS011;3942;51.518;6.912;2022-09-27T23:46:37;11.88;;;5.88;;
7795;SDS011;3942;51.518;6.912;2022-09-27T23:51:40;12.57;;;6.68;;
7795;SDS011;3942;51.518;6.912;2022-09-27T23:56:44;8.60;;;4.75;;
